Time;durP1;ratioP1;P1;durP2;ratioP2;P2;SDS_P1;SDS_P2;PMS_P1;PMS_P2;Temp;Humidity;BMP_temperature;BMP_pressure;BME280_temperature;BME280_humidity;BME280_pressure;Samples;Min_cycle;Max_cycle;Signal;HPM_P1;HPM_P2
2022/04/10 00:00:47;;;;;;;5.45;1.95;;;3.80;99.90;;;;;;1954100;73;21133;-76
2022/04/10 00:03:14;;;;;;;6.42;2.45;;;3.80;99.90;;;;;;1954069;73;21064;-74
2022/04/10 00:05:41;;;;;;;6.12;2.27;;;3.60;99.90;;;;;;1956106;73;21067;-76
2022/04/10 00:08:09;;;;;;;9.88;2.35;;;3.40;99.90;;;;;;1961854;73;21043;-75
2022/04/10 00:10:36;;;;;;;4.10;2.20;;;3.60;99.90;;;;;;1956785;73;21059;-75
2022/04/10 00:13:05;;;;;;;11.28;2.22;;;3.50;99.90;;;;;;1958291;72;21177;-76
2022/04/10 00:15:34;;;;;;;11.30;2.17;;;3.50;99.90;;;;;;1959795;73;21506;-75
2022/04/10 00:18:01;;;;;;;5.28;2.33;;;3.50;99.90;;;;;;1961519;73;21460;-75
2022/04/10 00:20:29;;;;;;;2.80;2.10;;;3.40;99.90;;;;;;1960001;73;21063;-75
2022/04/10 00:22:56;;;;;;;5.42;2.33;;;3.40;99.90;;;;;;1961417;73;21088;-76
2022/04/10 00:25:25;;;;;;;4.40;2.10;;;3.40;99.90;;;;;;1956462;73;21245;-76
2022/04/10 00:27:52;;;;;;;4.45;2.15;;;3.30;99.90;;;;;;1961117;73;21063;-74
2022/04/10 00:30:21;;;;;;;3.75;1.95;;;3.10;99.90;;;;;;1961334;73;21052;-76
2022/04/10 00:32:49;;;;;;;3.75;2.70;;;3.10;99.90;;;;;;1961303;73;21023;-76
2022/04/10 00:35:16;;;;;;;2.67;2.27;;;3.20;99.90;;;;;;1960880;73;21499;-75
2022/04/10 00:37:44;;;;;;;4.83;2.10;;;3.30;99.90;;;;;;1958706;73;21087;-75
2022/04/10 00:40:11;;;;;;;3.72;2.00;;;3.20;99.90;;;;;;1960221;73;21018;-76
2022/04/10 00:42:41;;;;;;;5.58;2.17;;;3.30;99.90;;;;;;1960517;73;21048;-76
2022/04/10 00:45:11;;;;;;;10.50;2.70;;;3.30;99.90;;;;;;1957255;73;21135;-74
2022/04/10 00:47:38;;;;;;;4.72;2.12;;;3.10;99.90;;;;;;1959686;73;21584;-74
2022/04/10 00:50:07;;;;;;;5.67;2.08;;;3.20;99.90;;;;;;1960471;72;21064;-76
2022/04/10 00:52:34;;;;;;;3.90;2.17;;;3.10;99.90;;;;;;1953564;72;21192;-75
2022/04/10 00:55:05;;;;;;;8.20;2.40;;;3.00;99.90;;;;;;1954663;73;21064;-74
2022/04/10 00:57:34;;;;;;;7.28;2.22;;;3.20;99.90;;;;;;1955452;73;21069;-74
2022/04/10 01:00:03;;;;;;;3.47;1.95;;;3.00;99.90;;;;;;1939325;73;21505;-74
2022/04/10 01:02:30;;;;;;;2.85;1.90;;;2.90;99.90;;;;;;1937742;72;21158;-75
2022/04/10 01:04:58;;;;;;;3.40;2.08;;;2.80;99.90;;;;;;1960976;73;21093;-73
2022/04/10 01:07:25;;;;;;;4.20;2.55;;;3.00;99.90;;;;;;1957754;73;21556;-74
2022/04/10 01:09:52;;;;;;;5.37;2.50;;;3.00;99.90;;;;;;1953584;73;21052;-74
2022/04/10 01:12:19;;;;;;;6.22;2.62;;;3.00;99.90;;;;;;1955672;72;21076;-74
2022/04/10 01:14:48;;;;;;;9.15;2.25;;;3.00;99.90;;;;;;1961100;73;21026;-74
2022/04/10 01:17:15;;;;;;;3.90;2.45;;;3.00;99.90;;;;;;1956080;71;21060;-76
2022/04/10 01:19:44;;;;;;;3.95;2.40;;;3.00;99.90;;;;;;1960909;73;21094;-75
2022/04/10 01:22:13;;;;;;;4.15;2.42;;;2.90;99.90;;;;;;1961007;73;21056;-77
2022/04/10 01:24:42;;;;;;;2.62;2.20;;;3.00;99.90;;;;;;1958302;73;21143;-77
2022/04/10 01:27:10;;;;;;;3.77;2.30;;;3.00;99.90;;;;;;1956077;73;21070;-75
2022/04/10 01:29:37;;;;;;;3.10;2.05;;;2.90;99.90;;;;;;1961050;73;21096;-74
2022/04/10 01:32:04;;;;;;;6.12;2.67;;;3.00;99.90;;;;;;1957730;72;21063;-78
2022/04/10 01:34:32;;;;;;;3.33;2.42;;;3.00;99.90;;;;;;1961111;73;21120;-77
2022/04/10 01:36:59;;;;;;;3.40;2.37;;;2.90;99.90;;;;;;1937618;73;21538;-75
2022/04/10 01:39:26;;;;;;;3.75;2.60;;;2.80;99.90;;;;;;1974061;73;21052;-75
2022/04/10 01:41:54;;;;;;;2.83;2.17;;;3.00;99.90;;;;;;1956616;72;21039;-76
2022/04/10 01:44:23;;;;;;;11.57;2.50;;;3.00;99.90;;;;;;1952068;73;21094;-75
2022/04/10 01:46:50;;;;;;;3.20;1.92;;;3.00;99.90;;;;;;1951976;72;21095;-74
2022/04/10 01:49:18;;;;;;;3.67;2.40;;;3.00;99.90;;;;;;1958330;72;21470;-75
2022/04/10 01:51:45;;;;;;;5.78;2.33;;;2.90;99.90;;;;;;1959252;73;21075;-74
2022/04/10 01:54:12;;;;;;;4.20;2.55;;;2.80;99.90;;;;;;1953791;73;21052;-74
2022/04/10 01:56:40;;;;;;;3.85;2.45;;;2.80;99.90;;;;;;1960087;73;21106;-74
2022/04/10 01:59:07;;;;;;;4.10;2.80;;;2.90;99.90;;;;;;1959794;73;21034;-75
2022/04/10 02:01:34;;;;;;;3.30;2.62;;;3.00;99.90;;;;;;1955199;72;21015;-75
2022/04/10 02:04:01;;;;;;;4.50;2.45;;;3.00;99.90;;;;;;1955164;73;21529;-75
2022/04/10 02:06:29;;;;;;;4.58;2.65;;;3.10;99.90;;;;;;1951913;73;21067;-75
2022/04/10 02:08:56;;;;;;;4.62;2.58;;;3.00;99.90;;;;;;1960077;72;21035;-74
2022/04/10 02:11:23;;;;;;;6.80;2.75;;;3.10;99.90;;;;;;1960175;73;21096;-75
2022/04/10 02:13:51;;;;;;;3.55;2.62;;;3.10;99.90;;;;;;1958463;73;21220;-75
2022/04/10 02:16:20;;;;;;;4.13;2.47;;;3.10;99.90;;;;;;1950043;71;21133;-74
2022/04/10 02:18:47;;;;;;;6.58;2.45;;;3.00;99.90;;;;;;1955848;72;21043;-74
2022/04/10 02:21:14;;;;;;;4.12;2.50;;;2.90;99.90;;;;;;1961103;73;21389;-74
2022/04/10 02:23:42;;;;;;;3.85;2.15;;;2.90;99.90;;;;;;1956882;73;21067;-74
2022/04/10 02:26:11;;;;;;;5.20;2.40;;;2.90;99.90;;;;;;1951968;73;21016;-74
2022/04/10 02:28:41;;;;;;;4.20;2.20;;;3.00;99.90;;;;;;1957973;73;21072;-76
2022/04/10 02:31:08;;;;;;;2.80;2.50;;;2.90;99.90;;;;;;1953824;72;21424;-75
2022/04/10 02:33:37;;;;;;;6.67;3.00;;;2.90;99.90;;;;;;1953830;73;21576;-75
2022/04/10 02:36:05;;;;;;;2.72;2.40;;;3.00;99.90;;;;;;1961143;73;21129;-75
2022/04/10 02:38:32;;;;;;;4.70;2.70;;;3.00;99.90;;;;;;1959327;73;21533;-75
2022/04/10 02:40:59;;;;;;;5.47;2.08;;;3.10;99.90;;;;;;1960947;71;21071;-75
2022/04/10 02:43:27;;;;;;;3.33;2.27;;;3.00;99.90;;;;;;1959710;73;21067;-75
2022/04/10 02:45:54;;;;;;;3.83;2.30;;;3.10;99.90;;;;;;1953527;73;21126;-75
2022/04/10 02:48:22;;;;;;;3.30;2.17;;;3.10;99.90;;;;;;1955251;73;21178;-75
2022/04/10 02:50:50;;;;;;;2.90;2.25;;;3.10;99.90;;;;;;1955910;73;21597;-75
2022/04/10 02:53:17;;;;;;;7.87;2.52;;;3.10;99.90;;;;;;1960917;73;21109;-75
2022/04/10 02:55:44;;;;;;;2.77;2.17;;;3.10;99.90;;;;;;1957716;73;21059;-75
2022/04/10 02:58:15;;;;;;;3.72;2.05;;;2.90;99.90;;;;;;1952840;73;21095;-75
2022/04/10 03:00:43;;;;;;;4.50;2.22;;;2.80;99.90;;;;;;1953523;72;21107;-74
2022/04/10 03:03:10;;;;;;;6.60;2.30;;;2.60;99.90;;;;;;1964048;73;21536;-75
2022/04/10 03:05:38;;;;;;;13.45;2.10;;;2.50;99.90;;;;;;1936813;73;21132;-75
2022/04/10 03:08:06;;;;;;;4.10;2.42;;;2.50;99.90;;;;;;1938047;73;21550;-75
2022/04/10 03:10:33;;;;;;;3.20;2.45;;;2.40;99.90;;;;;;1950943;73;21043;-75
2022/04/10 03:13:01;;;;;;;5.53;2.37;;;2.20;99.90;;;;;;1957427;72;21107;-75
2022/04/10 03:15:31;;;;;;;3.62;2.62;;;2.10;99.90;;;;;;1953664;72;21489;-75
2022/04/10 03:17:58;;;;;;;3.80;2.52;;;2.20;99.90;;;;;;1953089;72;21129;-74
2022/04/10 03:20:26;;;;;;;3.77;2.50;;;2.20;99.90;;;;;;1958523;71;21229;-75
2022/04/10 03:22:53;;;;;;;5.53;2.80;;;2.10;99.90;;;;;;1961127;73;21052;-75
2022/04/10 03:25:20;;;;;;;4.00;2.45;;;2.00;99.90;;;;;;1955737;72;21509;-75
2022/04/10 03:27:48;;;;;;;3.40;2.72;;;2.00;99.90;;;;;;1958090;73;21134;-75
2022/04/10 03:30:17;;;;;;;3.87;2.42;;;1.90;99.90;;;;;;1943401;73;21089;-75
2022/04/10 03:32:44;;;;;;;6.55;2.70;;;1.90;99.90;;;;;;1961154;72;21929;-75
2022/04/10 03:35:11;;;;;;;2.05;1.77;;;1.80;99.90;;;;;;1956969;73;21029;-75
2022/04/10 03:37:40;;;;;;;2.20;2.00;;;1.80;99.90;;;;;;1958596;73;20997;-74
2022/04/10 03:40:07;;;;;;;6.22;3.45;;;1.90;99.90;;;;;;1961064;73;21531;-74
2022/04/10 03:42:41;;;;;;;11.30;3.12;;;1.90;99.90;;;;;;1954485;73;21068;-75
2022/04/10 03:45:09;;;;;;;3.37;2.30;;;1.80;99.90;;;;;;1954406;73;21488;-75
2022/04/10 03:47:39;;;;;;;4.40;2.52;;;1.60;99.90;;;;;;1935617;74;21065;-75
2022/04/10 03:50:06;;;;;;;6.47;2.85;;;1.60;99.90;;;;;;1950648;72;21454;-75
2022/04/10 03:52:33;;;;;;;4.20;2.50;;;1.60;99.90;;;;;;1960583;73;21067;-75
2022/04/10 03:55:01;;;;;;;9.85;3.00;;;1.70;99.90;;;;;;1960925;73;21196;-75
2022/04/10 03:57:28;;;;;;;4.97;2.60;;;1.70;99.90;;;;;;1959089;73;21055;-75
2022/04/10 03:59:55;;;;;;;3.67;2.62;;;1.50;99.90;;;;;;1956189;73;21059;-75
2022/04/10 04:02:23;;;;;;;5.75;2.72;;;1.50;99.90;;;;;;1959431;73;21467;-75
2022/04/10 04:04:53;;;;;;;4.37;2.90;;;1.50;99.90;;;;;;1927347;73;21102;-74
2022/04/10 04:07:24;;;;;;;3.62;2.30;;;1.40;99.90;;;;;;1954299;73;21092;-75
2022/04/10 04:09:50;;;;;;;;;;;1.40;99.90;;;;;;1954869;73;21127;-75
2022/04/10 04:12:18;;;;;;;5.85;3.22;;;1.40;99.90;;;;;;1953527;73;20113;-75
2022/04/10 04:14:45;;;;;;;3.50;2.25;;;1.30;99.90;;;;;;1953323;72;21483;-75
2022/04/10 04:17:12;;;;;;;3.25;2.58;;;1.40;99.90;;;;;;1929192;73;21033;-75
2022/04/10 04:19:40;;;;;;;4.85;2.83;;;1.50;99.90;;;;;;1954035;72;21521;-75
2022/04/10 04:22:07;;;;;;;6.03;3.42;;;1.50;99.90;;;;;;1961054;73;21082;-75
2022/04/10 04:24:34;;;;;;;10.13;3.10;;;1.50;99.90;;;;;;1960871;72;21022;-75
2022/04/10 04:27:02;;;;;;;4.17;2.70;;;1.60;99.90;;;;;;1959277;72;21139;-75
2022/04/10 04:29:32;;;;;;;3.67;2.70;;;1.50;99.90;;;;;;1935652;73;21194;-75
2022/04/10 04:32:02;;;;;;;6.70;3.00;;;1.60;99.90;;;;;;1957636;73;21451;-74
2022/04/10 04:34:28;;;;;;;6.72;2.65;;;1.50;99.90;;;;;;1960826;73;21073;-76
2022/04/10 04:36:56;;;;;;;4.15;2.55;;;1.60;99.90;;;;;;1952674;72;21136;-75
2022/04/10 04:39:23;;;;;;;7.95;3.00;;;1.50;99.90;;;;;;1957519;73;21133;-75
2022/04/10 04:41:50;;;;;;;5.85;2.80;;;1.50;99.90;;;;;;1956448;73;21145;-75
2022/04/10 04:44:18;;;;;;;8.38;3.10;;;1.50;99.90;;;;;;1957308;73;21472;-75
2022/04/10 04:46:45;;;;;;;5.67;2.98;;;1.60;99.90;;;;;;1956616;73;21040;-75
2022/04/10 04:49:12;;;;;;;4.70;3.10;;;1.70;99.90;;;;;;1961013;73;21008;-75
2022/04/10 04:51:40;;;;;;;4.28;2.80;;;1.60;99.90;;;;;;1959444;73;21044;-75
2022/04/10 04:54:10;;;;;;;3.00;2.80;;;1.70;99.90;;;;;;1957772;73;21047;-75
2022/04/10 04:56:38;;;;;;;7.60;3.40;;;1.80;99.90;;;;;;1957808;73;21472;-76
2022/04/10 04:59:07;;;;;;;4.50;2.55;;;1.80;99.90;;;;;;1958058;73;21039;-74
2022/04/10 05:01:34;;;;;;;4.90;2.92;;;1.80;99.90;;;;;;1959526;72;21067;-75
2022/04/10 05:04:02;;;;;;;5.92;3.00;;;1.90;99.90;;;;;;1956318;73;21063;-75
2022/04/10 05:06:30;;;;;;;6.40;3.77;;;1.90;99.90;;;;;;1959254;72;21154;-75
2022/04/10 05:08:57;;;;;;;5.58;3.20;;;2.00;99.90;;;;;;1952674;73;21063;-75
2022/04/10 05:11:24;;;;;;;6.87;2.92;;;1.90;99.90;;;;;;1958503;73;21059;-75
2022/04/10 05:13:53;;;;;;;5.35;2.55;;;2.00;99.90;;;;;;1960581;73;21486;-74
2022/04/10 05:16:22;;;;;;;6.05;3.08;;;2.20;99.90;;;;;;1934592;73;21056;-75
2022/04/10 05:18:50;;;;;;;5.30;3.00;;;2.20;99.90;;;;;;1956388;72;21575;-76
2022/04/10 05:21:19;;;;;;;2.75;2.55;;;2.10;99.90;;;;;;1937153;73;21501;-75
2022/04/10 05:23:46;;;;;;;3.52;2.67;;;2.30;99.90;;;;;;1960977;72;21097;-75
2022/04/10 05:26:13;;;;;;;3.35;2.72;;;2.40;99.90;;;;;;1957851;73;21067;-76
2022/04/10 05:28:41;;;;;;;4.08;2.90;;;2.50;99.90;;;;;;1957633;73;21060;-76
2022/04/10 05:31:08;;;;;;;2.77;2.50;;;2.40;99.90;;;;;;1953404;73;21137;-76
2022/04/10 05:33:38;;;;;;;8.93;3.17;;;2.50;99.90;;;;;;1953975;72;21035;-75
2022/04/10 05:36:05;;;;;;;6.00;3.03;;;2.70;99.90;;;;;;1956369;73;21120;-74
2022/04/10 05:38:32;;;;;;;3.50;2.67;;;2.80;99.90;;;;;;1953577;72;21048;-75
2022/04/10 05:41:00;;;;;;;4.35;3.27;;;2.80;99.90;;;;;;1956833;73;21400;-75
2022/04/10 05:43:28;;;;;;;5.62;2.67;;;2.90;99.90;;;;;;1961192;73;21024;-75
2022/04/10 05:45:56;;;;;;;3.98;3.02;;;3.00;99.90;;;;;;1956196;72;21068;-76
2022/04/10 05:48:23;;;;;;;5.28;3.00;;;2.90;99.90;;;;;;1961072;73;21105;-76
2022/04/10 05:50:52;;;;;;;5.00;2.90;;;3.10;99.90;;;;;;1937022;73;21467;-76
2022/04/10 05:53:19;;;;;;;4.37;2.80;;;3.20;99.90;;;;;;1951969;72;21048;-76
2022/04/10 05:55:46;;;;;;;7.22;3.17;;;3.30;99.90;;;;;;1956636;73;21073;-76
2022/04/10 05:58:14;;;;;;;4.92;3.10;;;3.30;99.90;;;;;;1952510;73;21006;-76
2022/04/10 06:00:41;;;;;;;4.42;3.05;;;3.30;99.90;;;;;;1952523;72;21480;-77
2022/04/10 06:03:08;;;;;;;4.58;2.85;;;3.40;99.90;;;;;;1953429;73;21068;-75
2022/04/10 06:05:37;;;;;;;5.15;3.10;;;3.40;99.90;;;;;;1957781;71;21147;-78
2022/04/10 06:08:05;;;;;;;5.45;3.52;;;3.30;99.90;;;;;;1959354;73;21048;-75
2022/04/10 06:10:32;;;;;;;6.50;3.15;;;3.30;99.90;;;;;;1961781;73;21487;-77
2022/04/10 06:13:09;;;;;;;9.15;3.65;;;3.50;99.90;;;;;;1958439;73;21068;-75
2022/04/10 06:15:36;;;;;;;4.97;3.12;;;3.60;99.90;;;;;;1958015;72;21155;-75
2022/04/10 06:18:03;;;;;;;4.97;3.20;;;3.50;99.90;;;;;;1960751;73;21084;-76
2022/04/10 06:20:33;;;;;;;4.85;3.00;;;3.70;99.90;;;;;;1962051;72;21127;-76
2022/04/10 06:23:00;;;;;;;3.33;2.95;;;3.80;99.90;;;;;;1956483;72;21068;-77
2022/04/10 06:25:29;;;;;;;11.78;3.20;;;3.80;99.90;;;;;;1961357;73;21083;-76
2022/04/10 06:27:57;;;;;;;3.85;2.58;;;4.30;99.90;;;;;;1954524;72;21048;-76
2022/04/10 06:30:24;;;;;;;6.80;2.85;;;4.60;99.90;;;;;;1956442;73;21060;-75
2022/04/10 06:32:53;;;;;;;4.22;2.95;;;4.60;99.90;;;;;;1956980;72;21095;-76
2022/04/10 06:35:24;;;;;;;5.42;3.08;;;4.70;99.90;;;;;;1952423;73;21114;-75
2022/04/10 06:37:52;;;;;;;6.17;3.33;;;4.70;99.90;;;;;;1959682;72;21155;-76
2022/04/10 06:40:21;;;;;;;3.15;2.85;;;4.90;99.90;;;;;;1960968;73;21084;-76
2022/04/10 06:42:51;;;;;;;4.30;3.17;;;5.40;99.90;;;;;;1956445;72;21048;-75
2022/04/10 06:45:18;;;;;;;4.95;2.83;;;5.60;99.90;;;;;;1955923;72;21077;-77
2022/04/10 06:47:45;;;;;;;5.00;2.75;;;5.30;99.90;;;;;;1955299;73;21552;-77
2022/04/10 06:50:13;;;;;;;3.62;2.83;;;5.40;99.90;;;;;;1952162;72;21435;-77
2022/04/10 06:52:40;;;;;;;2.98;2.50;;;5.50;99.90;;;;;;1957262;73;21083;-75
2022/04/10 06:55:09;;;;;;;5.70;3.10;;;5.30;99.90;;;;;;1952503;72;21113;-79
2022/04/10 06:57:38;;;;;;;5.60;2.90;;;5.30;99.90;;;;;;1953799;73;21056;-79
2022/04/10 07:00:07;;;;;;;7.97;3.12;;;5.40;99.90;;;;;;1959893;73;21538;-76
2022/04/10 07:02:36;;;;;;;4.28;2.80;;;5.40;99.90;;;;;;1960908;71;21168;-77
2022/04/10 07:05:05;;;;;;;6.00;3.27;;;5.60;99.90;;;;;;1953694;72;21488;-77
2022/04/10 07:07:37;;;;;;;7.90;2.85;;;5.80;99.90;;;;;;1934972;72;21075;-77
2022/04/10 07:10:04;;;;;;;6.22;3.17;;;5.60;99.90;;;;;;1959536;72;21443;-77
2022/04/10 07:12:32;;;;;;;4.20;3.00;;;5.90;99.90;;;;;;1961430;73;21193;-79
2022/04/10 07:15:02;;;;;;;6.30;3.15;;;5.80;99.90;;;;;;1958496;73;21087;-79
2022/04/10 07:17:31;;;;;;;4.28;3.10;;;5.80;99.90;;;;;;1953691;73;21036;-79
2022/04/10 07:19:59;;;;;;;18.82;8.83;;;6.10;99.90;;;;;;1955247;73;21028;-79
2022/04/10 07:25:12;;;;;;;5.28;2.70;;;6.10;99.90;;;;;;1958351;72;21177;-80
2022/04/10 07:27:41;;;;;;;6.17;3.02;;;6.10;99.90;;;;;;1954212;73;21071;-80
2022/04/10 07:30:08;;;;;;;4.92;2.87;;;6.60;99.90;;;;;;1961200;73;21062;-78
2022/04/10 07:32:37;;;;;;;6.05;3.27;;;6.70;99.90;;;;;;1953911;72;21063;-80
2022/04/10 07:35:05;;;;;;;3.92;3.10;;;6.80;99.90;;;;;;1958938;73;21075;-80
2022/04/10 07:37:33;;;;;;;4.75;3.05;;;6.70;99.90;;;;;;1956697;73;21044;-77
2022/04/10 07:40:02;;;;;;;5.10;2.90;;;6.70;99.90;;;;;;1937785;73;21425;-81
2022/04/10 07:42:29;;;;;;;4.20;2.90;;;6.60;99.90;;;;;;1961022;73;21228;-78
2022/04/10 07:44:59;;;;;;;4.62;3.27;;;6.80;99.90;;;;;;1958834;73;21060;-77
2022/04/10 07:47:26;;;;;;;5.37;3.08;;;6.70;99.90;;;;;;1953888;72;21083;-80
2022/04/10 07:49:54;;;;;;;4.15;3.08;;;6.90;99.90;;;;;;1957824;72;21280;-77
2022/04/10 07:52:22;;;;;;;7.62;3.42;;;6.90;99.90;;;;;;1955295;73;21103;-77
2022/04/10 07:54:50;;;;;;;9.75;3.33;;;7.20;99.90;;;;;;1942567;73;21463;-80
2022/04/10 07:57:17;;;;;;;6.10;2.72;;;7.50;99.90;;;;;;1936289;73;21064;-78
2022/04/10 07:59:45;;;;;;;7.15;3.00;;;7.50;99.90;;;;;;1952365;73;21495;-80
2022/04/10 08:02:13;;;;;;;5.62;2.87;;;7.50;99.90;;;;;;1957765;73;21160;-78
2022/04/10 08:04:42;;;;;;;9.85;2.85;;;7.80;99.90;;;;;;1957793;73;21133;-78
2022/04/10 08:07:09;;;;;;;3.35;2.58;;;8.40;99.90;;;;;;1961112;73;21487;-77
2022/04/10 08:09:36;;;;;;;5.10;2.55;;;8.80;99.90;;;;;;1961215;73;20992;-80
2022/04/10 08:12:04;;;;;;;6.37;2.95;;;8.90;99.90;;;;;;1960323;73;21092;-80
2022/04/10 08:14:31;;;;;;;9.60;3.15;;;8.80;99.90;;;;;;1954943;72;21101;-80
2022/04/10 08:16:58;;;;;;;4.78;2.65;;;9.00;99.90;;;;;;1958138;72;21076;-80
2022/04/10 08:19:26;;;;;;;4.97;2.72;;;9.30;99.90;;;;;;1961213;71;21023;-79
2022/04/10 08:21:56;;;;;;;5.33;2.83;;;8.60;99.90;;;;;;1958143;73;21467;-79
2022/04/10 08:24:25;;;;;;;3.83;2.40;;;9.00;99.90;;;;;;1956377;73;21553;-79
2022/04/10 08:26:53;;;;;;;6.78;2.85;;;9.00;99.90;;;;;;1959269;73;21087;-80
2022/04/10 08:29:20;;;;;;;4.55;2.72;;;9.10;99.90;;;;;;1938892;74;21037;-79
2022/04/10 08:31:50;;;;;;;2.87;2.10;;;9.30;99.90;;;;;;1958366;73;21166;-82
2022/04/10 08:34:19;;;;;;;9.00;2.40;;;9.70;99.90;;;;;;1960221;73;21054;-81
2022/04/10 08:36:46;;;;;;;4.95;2.75;;;9.80;99.90;;;;;;1962245;72;21095;-80
2022/04/10 08:39:15;;;;;;;8.95;2.55;;;9.30;99.90;;;;;;1964702;73;21029;-80
2022/04/10 08:41:43;;;;;;;5.15;3.12;;;9.40;99.90;;;;;;1961214;72;21184;-80
2022/04/10 08:44:10;;;;;;;4.25;2.77;;;9.30;99.90;;;;;;1954696;73;21037;-78
2022/04/10 08:46:37;;;;;;;6.05;2.45;;;9.30;99.90;;;;;;1956502;73;21052;-80
2022/04/10 08:49:08;;;;;;;4.33;2.58;;;9.60;99.90;;;;;;1960127;73;21071;-78
2022/04/10 08:51:34;;;;;;;;;;;9.50;99.90;;;;;;1962638;73;21562;-80
2022/04/10 08:54:02;;;;;;;5.62;2.08;;;9.50;99.90;;;;;;1956864;73;20113;-79
2022/04/10 08:56:31;;;;;;;4.72;2.80;;;9.40;99.90;;;;;;1961223;72;21076;-77
2022/04/10 08:59:00;;;;;;;5.58;2.90;;;9.60;99.90;;;;;;1955038;73;21112;-81
2022/04/10 09:01:27;;;;;;;7.75;3.00;;;9.40;99.90;;;;;;1954325;72;21081;-78
2022/04/10 09:03:55;;;;;;;4.15;2.60;;;9.20;99.90;;;;;;1961158;72;21486;-78
2022/04/10 09:06:22;;;;;;;5.30;2.67;;;9.10;99.90;;;;;;1960991;73;21099;-80
2022/04/10 09:08:49;;;;;;;5.35;2.77;;;8.90;99.90;;;;;;1959251;73;21064;-78
2022/04/10 09:11:16;;;;;;;7.25;3.08;;;8.90;99.90;;;;;;1961094;73;21075;-81
2022/04/10 09:13:51;;;;;;;4.95;2.72;;;9.10;99.90;;;;;;1957481;72;21092;-80
2022/04/10 09:16:18;;;;;;;4.10;2.50;;;9.10;99.90;;;;;;1951018;72;21101;-79
2022/04/10 09:19:00;;;;;;;13.30;2.98;;;9.50;99.90;;;;;;1951868;72;21123;-80
2022/04/10 09:21:32;;;;;;;3.25;2.30;;;9.10;99.90;;;;;;1957457;72;21259;-81
2022/04/10 09:24:02;;;;;;;11.45;2.72;;;9.60;99.90;;;;;;1952924;72;21069;-78
2022/04/10 09:26:44;;;;;;;5.58;2.70;;;9.80;99.90;;;;;;1953535;73;21172;-78
2022/04/10 09:29:12;;;;;;;5.40;2.55;;;10.00;99.90;;;;;;1959206;73;21072;-81
2022/04/10 09:31:40;;;;;;;5.05;2.58;;;9.90;99.90;;;;;;1955008;72;21154;-77
2022/04/10 09:34:08;;;;;;;4.20;2.35;;;9.80;99.90;;;;;;1954688;72;21125;-78
2022/04/10 09:36:43;;;;;;;11.75;3.08;;;9.90;99.90;;;;;;1952699;73;21125;-78
2022/04/10 09:39:19;;;;;;;4.72;2.42;;;10.10;99.90;;;;;;1960539;72;21088;-81
2022/04/10 09:41:46;;;;;;;2.98;2.30;;;9.90;99.90;;;;;;1948493;73;21159;-80
2022/04/10 09:44:20;;;;;;;3.45;2.30;;;9.60;99.90;;;;;;1961147;72;21038;-78
2022/04/10 09:46:58;;;;;;;3.95;2.42;;;9.90;99.90;;;;;;1955653;73;21072;-79
2022/04/10 09:49:27;;;;;;;3.12;2.42;;;10.00;99.90;;;;;;1958261;73;21044;-78
2022/04/10 09:52:07;;;;;;;4.60;2.40;;;10.00;99.90;;;;;;1955046;72;21056;-80
2022/04/10 09:54:50;;;;;;;3.58;1.92;;;10.20;99.90;;;;;;1952355;73;21060;-81
2022/04/10 09:57:20;;;;;;;3.72;2.05;;;9.90;99.90;;;;;;1952458;73;21084;-79
2022/04/10 09:59:51;;;;;;;5.75;2.58;;;9.60;99.90;;;;;;1961497;72;21036;-78
2022/04/10 10:02:20;;;;;;;4.28;2.58;;;9.30;99.90;;;;;;1958773;72;21106;-78
2022/04/10 10:04:48;;;;;;;4.37;2.40;;;9.20;99.90;;;;;;1952381;73;21135;-78
2022/04/10 10:07:18;;;;;;;5.03;2.27;;;9.00;99.90;;;;;;1958823;73;21110;-80
2022/04/10 10:09:50;;;;;;;5.85;2.87;;;9.00;99.90;;;;;;1962480;72;21035;-79
2022/04/10 10:12:15;;;;;;;5.92;2.47;;;9.20;99.90;;;;;;1960990;73;21146;-79
2022/04/10 10:14:42;;;;;;;6.87;2.35;;;10.00;99.90;;;;;;1961658;73;21401;-79
2022/04/10 10:17:10;;;;;;;5.42;2.65;;;10.80;99.90;;;;;;1956062;73;21137;-80
2022/04/10 10:19:41;;;;;;;5.65;2.65;;;11.60;99.90;;;;;;1958356;72;21459;-79
2022/04/10 10:22:10;;;;;;;5.72;2.35;;;11.90;99.90;;;;;;1958613;73;21105;-81
2022/04/10 10:24:40;;;;;;;4.53;2.12;;;11.60;99.90;;;;;;1960638;73;21097;-81
2022/04/10 10:27:27;;;;;;;4.87;2.30;;;10.70;99.90;;;;;;1960598;72;21170;-78
2022/04/10 10:30:22;;;;;;;5.65;2.22;;;10.30;99.90;;;;;;1956756;72;21056;-82
2022/04/10 10:32:56;;;;;;;4.83;2.17;;;10.20;99.90;;;;;;1962318;73;21531;-81
2022/04/10 10:35:43;;;;;;;5.60;2.15;;;10.60;99.90;;;;;;1962876;73;21144;-81
2022/04/10 10:38:27;;;;;;;4.17;1.80;;;10.50;99.90;;;;;;1960758;73;21115;-81
2022/04/10 10:41:16;;;;;;;8.33;2.80;;;10.40;99.90;;;;;;1962662;73;21504;-77
2022/04/10 10:43:43;;;;;;;3.83;2.02;;;10.70;99.90;;;;;;1961497;73;21456;-80
2022/04/10 10:46:28;;;;;;;5.72;1.95;;;11.20;99.90;;;;;;1937092;73;21063;-80
2022/04/10 10:49:22;;;;;;;5.17;2.02;;;11.20;99.90;;;;;;1959991;73;21181;-82
2022/04/10 10:51:50;;;;;;;5.72;1.87;;;10.90;99.90;;;;;;1962198;73;21085;-78
2022/04/10 10:54:23;;;;;;;6.00;2.30;;;10.50;99.90;;;;;;1955585;73;21068;-78
2022/04/10 10:56:51;;;;;;;4.70;2.35;;;9.70;99.90;;;;;;1961412;72;21100;-79
2022/04/10 10:59:24;;;;;;;3.27;2.35;;;9.10;99.90;;;;;;1956019;73;21045;-78
2022/04/10 11:01:56;;;;;;;4.12;2.75;;;8.70;99.90;;;;;;1954275;73;21048;-81
2022/04/10 11:04:28;;;;;;;3.95;2.60;;;8.30;99.90;;;;;;1958590;73;21076;-78
2022/04/10 11:06:55;;;;;;;6.10;2.62;;;8.30;99.90;;;;;;1955403;73;21112;-78
2022/04/10 11:09:31;;;;;;;3.20;2.67;;;8.00;99.90;;;;;;1961382;73;21138;-78
2022/04/10 11:12:00;;;;;;;4.83;2.58;;;8.20;99.90;;;;;;1961173;73;21124;-78
2022/04/10 11:14:40;;;;;;;6.20;2.92;;;8.30;99.90;;;;;;1954570;72;21031;-78
2022/04/10 11:17:20;;;;;;;;;;;8.50;99.90;;;;;;1963032;73;21044;-80
2022/04/10 11:19:57;;;;;;;5.92;2.77;;;8.20;99.90;;;;;;1956807;72;20151;-80
2022/04/10 11:22:28;;;;;;;4.12;3.00;;;8.20;99.90;;;;;;1951750;72;21167;-78
2022/04/10 11:25:00;;;;;;;4.62;2.83;;;8.20;99.90;;;;;;1953144;73;21064;-79
2022/04/10 11:27:57;;;;;;;6.92;2.87;;;8.50;99.90;;;;;;1932386;74;21076;-80
2022/04/10 11:30:25;;;;;;;5.25;3.00;;;7.90;99.90;;;;;;1948043;72;21041;-81
2022/04/10 11:33:00;;;;;;;4.92;2.95;;;7.90;99.90;;;;;;1961736;73;21098;-80
2022/04/10 11:35:31;;;;;;;9.73;2.80;;;8.10;99.90;;;;;;1958796;73;21075;-81
2022/04/10 11:38:03;;;;;;;5.92;2.75;;;8.20;99.90;;;;;;1952124;72;21068;-79
2022/04/10 11:40:31;;;;;;;4.00;2.72;;;8.40;99.90;;;;;;1958754;73;21149;-81
2022/04/10 11:43:02;;;;;;;5.37;2.10;;;9.40;99.90;;;;;;1957597;72;21083;-81
2022/04/10 11:45:30;;;;;;;4.37;2.55;;;10.60;99.90;;;;;;1955681;72;21487;-81
2022/04/10 11:47:59;;;;;;;3.98;2.35;;;11.30;99.90;;;;;;1955166;73;21075;-81
2022/04/10 11:50:28;;;;;;;7.45;2.22;;;11.90;99.90;;;;;;1960945;73;21582;-82
2022/04/10 11:53:03;;;;;;;3.80;2.58;;;11.90;99.90;;;;;;1961119;73;21022;-81
2022/04/10 11:55:38;;;;;;;5.17;2.67;;;11.20;99.90;;;;;;1958890;73;21027;-81
2022/04/10 11:58:24;;;;;;;4.80;2.92;;;10.70;99.90;;;;;;1960666;72;21476;-81
2022/04/10 12:00:55;;;;;;;8.13;3.17;;;10.00;99.90;;;;;;1960859;73;21550;-82
2022/04/10 12:03:24;;;;;;;4.92;2.70;;;9.80;99.90;;;;;;1956055;73;21049;-81
2022/04/10 12:05:51;;;;;;;5.47;2.72;;;10.00;99.90;;;;;;1960979;73;21033;-81
2022/04/10 12:08:19;;;;;;;5.28;2.77;;;10.20;99.90;;;;;;1961147;73;21071;-81
2022/04/10 12:10:58;;;;;;;4.00;2.55;;;10.60;99.90;;;;;;1957557;72;21072;-80
2022/04/10 12:13:30;;;;;;;4.80;2.52;;;10.40;99.90;;;;;;1951986;73;21064;-81
2022/04/10 12:16:01;;;;;;;4.20;2.40;;;10.80;99.90;;;;;;1950192;72;21090;-78
2022/04/10 12:18:29;;;;;;;5.75;2.22;;;12.00;99.90;;;;;;1956392;71;21085;-79
2022/04/10 12:21:01;;;;;;;3.52;2.12;;;12.90;99.90;;;;;;1961167;73;21137;-78
2022/04/10 12:23:29;;;;;;;3.17;1.82;;;12.80;99.90;;;;;;1955927;73;21073;-78
2022/04/10 12:25:58;;;;;;;2.37;1.72;;;12.10;99.90;;;;;;1960929;71;21129;-79
2022/04/10 12:28:25;;;;;;;1.57;1.12;;;10.80;99.90;;;;;;1961336;73;21113;-79
2022/04/10 12:30:53;;;;;;;3.83;2.12;;;10.10;99.90;;;;;;1961694;73;21027;-78
2022/04/10 12:33:21;;;;;;;2.55;1.60;;;10.00;99.90;;;;;;1956591;73;21041;-79
2022/04/10 12:35:48;;;;;;;5.17;1.77;;;9.50;99.90;;;;;;1959062;73;21024;-80
2022/04/10 12:38:17;;;;;;;5.28;2.70;;;9.00;99.90;;;;;;1957028;73;21114;-82
2022/04/10 12:40:44;;;;;;;2.92;2.33;;;8.60;99.90;;;;;;1963270;73;21036;-79
2022/04/10 12:43:12;;;;;;;5.70;2.77;;;8.50;99.90;;;;;;1964834;72;21080;-79
2022/04/10 12:45:41;;;;;;;8.90;2.77;;;8.40;99.90;;;;;;1963525;73;21102;-75
2022/04/10 12:48:24;;;;;;;5.53;2.60;;;8.70;99.90;;;;;;1941019;73;21144;-78
2022/04/10 12:51:06;;;;;;;5.53;2.98;;;9.50;99.90;;;;;;1963204;73;21151;-78
2022/04/10 12:53:33;;;;;;;6.42;2.67;;;10.10;99.90;;;;;;1963279;73;21197;-80
2022/04/10 12:56:00;;;;;;;4.00;2.40;;;11.50;99.90;;;;;;1963058;73;21069;-78
2022/04/10 12:58:31;;;;;;;3.58;2.33;;;11.90;99.90;;;;;;1936759;73;21501;-78
2022/04/10 13:01:01;;;;;;;4.42;2.30;;;11.70;99.90;;;;;;1958341;72;21089;-77
2022/04/10 13:03:29;;;;;;;4.37;2.45;;;11.00;99.90;;;;;;1961401;72;21096;-79
2022/04/10 13:05:59;;;;;;;4.62;2.22;;;10.90;99.90;;;;;;1955294;72;21464;-79
2022/04/10 13:08:31;;;;;;;5.83;2.40;;;10.90;99.90;;;;;;1956292;72;21069;-79